createdAt,value
2019-04-25T00:00:42.213Z,990.12
2019-04-25T00:01:42.228Z,990.14
2019-04-25T00:02:42.306Z,990.21
2019-04-25T00:03:42.210Z,990.20
2019-04-25T00:04:42.603Z,990.24
2019-04-25T00:05:42.170Z,990.21
2019-04-25T00:06:41.123Z,990.24
2019-04-25T00:07:42.498Z,990.18
2019-04-25T00:08:41.297Z,990.24
2019-04-25T00:09:42.725Z,990.24
2019-04-25T00:10:42.678Z,990.23
2019-04-25T00:11:43.668Z,990.22
2019-04-25T00:12:43.188Z,990.30
2019-04-25T00:13:41.934Z,990.39
2019-04-25T00:14:41.669Z,990.34
2019-04-25T00:15:41.944Z,990.42
2019-04-25T00:16:41.381Z,990.45
2019-04-25T00:17:41.958Z,990.44
2019-04-25T00:18:41.924Z,990.48
2019-04-25T00:19:42.185Z,990.53
2019-04-25T00:20:42.636Z,990.51
2019-04-25T00:21:42.157Z,990.52
2019-04-25T00:22:42.474Z,990.50
2019-04-25T00:23:42.579Z,990.47
2019-04-25T00:24:42.584Z,990.46
2019-04-25T00:25:45.129Z,990.42
2019-04-25T00:26:43.231Z,990.42
2019-04-25T00:27:43.264Z,990.48
2019-04-25T00:28:43.511Z,990.58
2019-04-25T00:29:41.831Z,990.54
2019-04-25T00:30:40.906Z,990.57
2019-04-25T00:31:43.265Z,990.58
2019-04-25T00:32:42.172Z,990.57
2019-04-25T00:33:41.974Z,990.58
2019-04-25T00:34:43.196Z,990.56
2019-04-25T00:35:43.230Z,990.61
2019-04-25T00:36:43.458Z,990.66
2019-04-25T00:37:40.243Z,990.72
2019-04-25T00:38:42.703Z,990.76
2019-04-25T00:39:43.519Z,990.74
2019-04-25T00:40:41.884Z,990.83
2019-04-25T00:41:41.725Z,990.71
2019-04-25T00:42:42.778Z,990.72
2019-04-25T00:43:42.194Z,990.73
2019-04-25T00:44:42.511Z,990.74
2019-04-25T00:45:42.384Z,990.87
2019-04-25T00:46:40.178Z,990.97
2019-04-25T00:47:41.538Z,990.97
2019-04-25T00:48:41.513Z,991.00
2019-04-25T00:49:43.043Z,991.01
2019-04-25T00:50:41.569Z,990.99
2019-04-25T00:51:41.748Z,991.05
2019-04-25T00:52:42.417Z,991.04
2019-04-25T00:53:41.801Z,991.07
2019-04-25T00:54:41.394Z,991.06
2019-04-25T00:55:42.217Z,990.97
2019-04-25T00:56:40.084Z,991.03
2019-04-25T00:57:40.039Z,991.09
2019-04-25T00:58:40.024Z,991.14
2019-04-25T00:59:41.735Z,991.07
2019-04-25T01:00:41.477Z,990.97
2019-04-25T01:01:41.362Z,990.98
2019-04-25T01:02:40.082Z,990.99
2019-04-25T01:03:39.968Z,991.06
2019-04-25T01:04:41.975Z,991.03
2019-04-25T01:05:39.961Z,991.04
2019-04-25T01:06:41.575Z,990.94
2019-04-25T01:07:39.928Z,990.93
2019-04-25T01:08:41.413Z,990.93
2019-04-25T01:09:42.198Z,991.00
2019-04-25T01:10:41.545Z,990.98
2019-04-25T01:11:39.915Z,990.93
2019-04-25T01:12:41.605Z,990.98
2019-04-25T01:13:39.856Z,990.96
2019-04-25T01:14:41.870Z,990.98
2019-04-25T01:15:39.843Z,990.95
2019-04-25T01:16:39.885Z,990.92
2019-04-25T01:17:41.227Z,990.96
2019-04-25T01:18:39.823Z,991.09
2019-04-25T01:19:39.812Z,991.12
2019-04-25T01:20:39.792Z,991.12
2019-04-25T01:21:39.802Z,991.16
2019-04-25T01:22:39.813Z,991.19
2019-04-25T01:23:39.794Z,991.20
2019-04-25T01:24:40.310Z,991.27
2019-04-25T01:25:42.562Z,991.20
2019-04-25T01:26:39.728Z,991.21
2019-04-25T01:27:39.740Z,991.22
2019-04-25T01:28:39.700Z,991.27
2019-04-25T01:29:39.757Z,991.19
2019-04-25T01:30:39.678Z,991.26
2019-04-25T01:31:39.668Z,991.32
2019-04-25T01:32:39.696Z,991.38
2019-04-25T01:33:39.666Z,991.35
2019-04-25T01:34:39.644Z,991.36
2019-04-25T01:35:39.626Z,991.29
2019-04-25T01:36:39.622Z,991.31
2019-04-25T01:37:39.647Z,991.17
2019-04-25T01:38:39.613Z,991.10
2019-04-25T01:39:39.591Z,991.01
2019-04-25T01:40:39.573Z,990.93
2019-04-25T01:41:39.601Z,990.96
2019-04-25T01:42:39.662Z,990.91
2019-04-25T01:43:39.581Z,990.97
2019-04-25T01:44:39.531Z,990.99
2019-04-25T01:45:40.351Z,991.04
2019-04-25T01:46:39.509Z,991.04
2019-04-25T01:47:39.529Z,990.98
2019-04-25T01:48:39.491Z,990.99
2019-04-25T01:49:39.489Z,991.01
2019-04-25T01:50:39.476Z,991.00
2019-04-25T01:51:39.465Z,991.02
2019-04-25T01:52:39.477Z,990.99
2019-04-25T01:53:39.436Z,990.97
2019-04-25T01:54:39.425Z,990.99
2019-04-25T01:55:50.912Z,991.01
2019-04-25T01:56:40.404Z,991.02
2019-04-25T01:57:39.436Z,991.05
2019-04-25T01:58:39.382Z,991.07
2019-04-25T01:59:39.365Z,991.01
2019-04-25T02:00:39.904Z,991.06
2019-04-25T02:01:39.379Z,991.11
2019-04-25T02:02:39.844Z,991.19
2019-04-25T02:03:39.361Z,991.33
2019-04-25T02:04:39.339Z,991.30
2019-04-25T02:05:39.322Z,991.36
2019-04-25T02:06:39.311Z,991.38
2019-04-25T02:07:39.288Z,991.39
2019-04-25T02:08:39.343Z,991.57
2019-04-25T02:09:39.268Z,991.55
2019-04-25T02:10:39.248Z,991.47
2019-04-25T02:11:39.248Z,991.54
2019-04-25T02:12:39.237Z,991.57
2019-04-25T02:13:39.266Z,991.57
2019-04-25T02:14:39.965Z,991.54
2019-04-25T02:15:39.221Z,991.55
2019-04-25T02:16:39.965Z,991.62
2019-04-25T02:17:39.189Z,991.56
2019-04-25T02:18:39.211Z,991.62
2019-04-25T02:19:39.163Z,991.59
2019-04-25T02:20:39.163Z,991.58
2019-04-25T02:21:39.143Z,991.61
2019-04-25T02:22:39.963Z,991.62
2019-04-25T02:23:39.149Z,991.63
2019-04-25T02:24:39.112Z,991.63
2019-04-25T02:25:39.097Z,991.59
2019-04-25T02:26:39.090Z,991.62
2019-04-25T02:27:39.105Z,991.60
2019-04-25T02:28:39.089Z,991.59
2019-04-25T02:29:39.058Z,991.63
2019-04-25T02:30:39.048Z,991.59
2019-04-25T02:31:39.079Z,991.60
2019-04-25T02:32:39.029Z,991.64
2019-04-25T02:33:39.040Z,991.68
2019-04-25T02:34:39.018Z,991.80
2019-04-25T02:35:42.891Z,991.85
2019-04-25T02:36:39.995Z,991.84
2019-04-25T02:37:38.976Z,991.86
2019-04-25T02:38:39.008Z,991.95
2019-04-25T02:39:39.506Z,991.93
2019-04-25T02:40:39.507Z,991.97
2019-04-25T02:41:38.942Z,992.01
2019-04-25T02:42:38.922Z,992.01
2019-04-25T02:43:39.039Z,991.98
2019-04-25T02:44:38.924Z,992.00
2019-04-25T02:45:38.899Z,992.03
2019-04-25T02:46:38.906Z,992.00
2019-04-25T02:47:38.893Z,992.05
2019-04-25T02:48:38.861Z,992.01
2019-04-25T02:49:39.818Z,991.97
2019-04-25T02:50:38.851Z,991.90
2019-04-25T02:51:38.826Z,991.99
2019-04-25T02:52:38.832Z,991.98
2019-04-25T02:53:38.915Z,992.01
2019-04-25T02:54:38.827Z,992.13
2019-04-25T02:55:38.816Z,992.09
2019-04-25T02:56:39.219Z,992.10
2019-04-25T02:57:38.775Z,992.15
2019-04-25T02:58:38.762Z,992.11
2019-04-25T02:59:38.773Z,992.13
2019-04-25T03:00:51.647Z,992.10
2019-04-25T03:01:39.726Z,992.10
2019-04-25T03:02:38.730Z,992.11
2019-04-25T03:03:38.749Z,992.14
2019-04-25T03:04:38.729Z,992.06
2019-04-25T03:05:38.693Z,992.05
2019-04-25T03:06:38.682Z,992.09
2019-04-25T03:07:38.673Z,992.10
2019-04-25T03:08:38.681Z,992.07
2019-04-25T03:09:38.670Z,992.03
2019-04-25T03:10:38.629Z,992.06
2019-04-25T03:11:38.618Z,992.00
2019-04-25T03:12:38.613Z,991.93
2019-04-25T03:13:38.600Z,992.01
2019-04-25T03:14:38.640Z,991.99
2019-04-25T03:15:38.580Z,992.00
2019-04-25T03:16:38.556Z,992.01
2019-04-25T03:17:38.556Z,991.99
2019-04-25T03:18:38.556Z,991.98
2019-04-25T03:19:38.602Z,991.99
2019-04-25T03:20:38.524Z,992.03
2019-04-25T03:21:38.514Z,991.98
2019-04-25T03:22:38.503Z,991.99
2019-04-25T03:23:42.073Z,992.01
2019-04-25T03:24:38.561Z,992.04
2019-04-25T03:25:38.477Z,992.06
2019-04-25T03:26:40.631Z,992.02
2019-04-25T03:27:38.461Z,992.11
2019-04-25T03:28:38.479Z,992.10
2019-04-25T03:29:38.462Z,992.13
2019-04-25T03:30:38.420Z,992.11
2019-04-25T03:31:39.021Z,992.12
2019-04-25T03:32:38.396Z,992.04
2019-04-25T03:33:38.801Z,992.08
2019-04-25T03:34:39.768Z,992.11
2019-04-25T03:35:38.364Z,992.03
2019-04-25T03:36:38.426Z,992.06
2019-04-25T03:37:39.152Z,992.16
2019-04-25T03:38:38.377Z,992.19
2019-04-25T03:39:38.345Z,992.14
2019-04-25T03:40:38.322Z,992.16
2019-04-25T03:41:40.514Z,992.16
2019-04-25T03:42:38.329Z,992.16
2019-04-25T03:43:39.233Z,992.29
2019-04-25T03:44:38.291Z,992.27
2019-04-25T03:45:38.263Z,992.30
2019-04-25T03:46:38.241Z,992.30
2019-04-25T03:47:38.241Z,992.34
2019-04-25T03:48:38.240Z,992.35
2019-04-25T03:49:38.239Z,992.37
2019-04-25T03:50:38.199Z,992.46
2019-04-25T03:51:38.187Z,992.46
2019-04-25T03:52:38.186Z,992.44
2019-04-25T03:53:38.177Z,992.52
2019-04-25T03:54:38.187Z,992.48
2019-04-25T03:55:38.154Z,992.44
2019-04-25T03:56:49.656Z,992.45
2019-04-25T03:57:39.126Z,992.46
2019-04-25T03:58:38.155Z,992.50
2019-04-25T03:59:38.185Z,992.49
2019-04-25T04:00:38.118Z,992.56
2019-04-25T04:01:38.085Z,992.59
2019-04-25T04:02:38.079Z,992.58
2019-04-25T04:03:38.072Z,992.62
2019-04-25T04:04:38.690Z,992.61
2019-04-25T04:05:38.074Z,992.66
2019-04-25T04:06:38.046Z,992.69
2019-04-25T04:07:38.037Z,992.65
2019-04-25T04:08:38.013Z,992.66
2019-04-25T04:09:38.048Z,992.69
2019-04-25T04:10:38.679Z,992.70
2019-04-25T04:11:37.988Z,992.69
2019-04-25T04:12:37.998Z,992.68
2019-04-25T04:13:37.976Z,992.63
2019-04-25T04:14:38.577Z,992.71
2019-04-25T04:15:38.016Z,992.72
2019-04-25T04:16:37.954Z,992.77
2019-04-25T04:17:37.941Z,992.76
2019-04-25T04:18:38.675Z,992.77
2019-04-25T04:19:37.983Z,992.77
2019-04-25T04:20:38.042Z,992.76
2019-04-25T04:21:37.973Z,992.74
2019-04-25T04:22:37.871Z,992.76
2019-04-25T04:23:37.895Z,992.82
2019-04-25T04:24:37.898Z,992.79
2019-04-25T04:25:38.582Z,992.75
2019-04-25T04:26:37.911Z,992.75
2019-04-25T04:27:38.680Z,992.78
2019-04-25T04:28:37.950Z,992.79
2019-04-25T04:29:37.800Z,992.79
2019-04-25T04:30:37.827Z,992.80
2019-04-25T04:31:37.787Z,992.77
2019-04-25T04:32:37.778Z,992.81
2019-04-25T04:33:37.764Z,992.78
2019-04-25T04:34:37.784Z,992.87
2019-04-25T04:35:37.865Z,992.81
2019-04-25T04:36:37.725Z,992.85
2019-04-25T04:37:37.732Z,992.87
2019-04-25T04:38:38.664Z,992.89
2019-04-25T04:39:37.755Z,992.87
2019-04-25T04:40:37.712Z,992.86
2019-04-25T04:41:37.732Z,992.88
2019-04-25T04:42:37.706Z,992.83
2019-04-25T04:43:37.694Z,992.90
2019-04-25T04:44:44.640Z,992.90
2019-04-25T04:45:37.639Z,992.87
2019-04-25T04:46:37.598Z,992.88
2019-04-25T04:47:37.598Z,992.87
2019-04-25T04:48:37.586Z,992.89
2019-04-25T04:49:37.578Z,992.90
2019-04-25T04:50:37.630Z,992.91
2019-04-25T04:51:37.545Z,992.98
2019-04-25T04:52:38.384Z,992.98
2019-04-25T04:53:37.525Z,992.97
2019-04-25T04:54:38.375Z,992.98
2019-04-25T04:55:37.943Z,992.99
2019-04-25T04:56:37.495Z,993.01
2019-04-25T04:57:37.484Z,993.09
2019-04-25T04:58:37.495Z,993.00
2019-04-25T04:59:38.161Z,993.00
2019-04-25T05:00:38.372Z,993.00
2019-04-25T05:01:38.162Z,993.01
2019-04-25T05:02:37.442Z,992.98
2019-04-25T05:03:37.420Z,993.03
2019-04-25T05:04:37.409Z,993.04
2019-04-25T05:05:37.438Z,993.04
2019-04-25T05:06:37.397Z,993.08
2019-04-25T05:07:37.387Z,993.10
2019-04-25T05:08:37.367Z,993.10
2019-04-25T05:09:37.386Z,993.11
2019-04-25T05:10:37.375Z,993.15
2019-04-25T05:11:37.368Z,993.08
2019-04-25T05:12:37.343Z,993.12
2019-04-25T05:13:37.325Z,993.08
2019-04-25T05:14:37.314Z,993.16
2019-04-25T05:15:37.323Z,993.12
2019-04-25T05:16:37.291Z,993.14
2019-04-25T05:17:37.274Z,993.12
2019-04-25T05:18:39.874Z,993.22
2019-04-25T05:19:37.269Z,993.25
2019-04-25T05:20:37.273Z,993.26
2019-04-25T05:21:37.248Z,993.30
2019-04-25T05:22:37.263Z,993.24
2019-04-25T05:23:37.222Z,993.26
2019-04-25T05:24:37.209Z,993.33
2019-04-25T05:25:37.249Z,993.39
2019-04-25T05:26:37.187Z,993.35
2019-04-25T05:27:50.781Z,993.36
2019-04-25T05:28:39.377Z,993.40
2019-04-25T05:29:37.147Z,993.39
2019-04-25T05:30:37.136Z,993.37
2019-04-25T05:31:37.156Z,993.44
2019-04-25T05:32:37.186Z,993.53
2019-04-25T05:33:37.125Z,993.49
2019-04-25T05:34:37.171Z,993.50
2019-04-25T05:35:37.083Z,993.54
2019-04-25T05:36:37.136Z,993.52
2019-04-25T05:37:37.079Z,993.49
2019-04-25T05:38:37.062Z,993.51
2019-04-25T05:39:37.141Z,993.56
2019-04-25T05:40:37.028Z,993.55
2019-04-25T05:41:37.050Z,993.50
2019-04-25T05:42:37.809Z,993.58
2019-04-25T05:43:36.999Z,993.54
2019-04-25T05:44:36.988Z,993.56
2019-04-25T05:45:36.986Z,993.57
2019-04-25T05:46:36.996Z,993.56
2019-04-25T05:47:36.959Z,993.59
2019-04-25T05:48:36.948Z,993.57
2019-04-25T05:49:36.928Z,993.53
2019-04-25T05:50:36.924Z,993.59
2019-04-25T05:51:36.935Z,993.52
2019-04-25T05:52:37.506Z,993.49
2019-04-25T05:53:36.893Z,993.55
2019-04-25T05:54:36.874Z,993.56
2019-04-25T05:55:36.872Z,993.52
2019-04-25T05:56:36.885Z,993.50
2019-04-25T05:57:45.511Z,993.49
2019-04-25T05:58:38.392Z,993.49
2019-04-25T05:59:36.854Z,993.54
2019-04-25T06:00:36.811Z,993.52
2019-04-25T06:01:36.830Z,993.57
2019-04-25T06:02:36.792Z,993.58
2019-04-25T06:03:36.780Z,993.58
2019-04-25T06:04:36.770Z,993.56
2019-04-25T06:05:36.760Z,993.55
2019-04-25T06:06:36.985Z,993.55
2019-04-25T06:07:36.739Z,993.59
2019-04-25T06:08:36.729Z,993.61
2019-04-25T06:09:36.721Z,993.63
2019-04-25T06:10:36.708Z,993.61
2019-04-25T06:11:36.728Z,993.63
2019-04-25T06:12:36.791Z,993.63
2019-04-25T06:13:36.676Z,993.68
2019-04-25T06:14:36.666Z,993.62
2019-04-25T06:15:36.654Z,993.70
2019-04-25T06:16:38.325Z,993.74
2019-04-25T06:17:36.641Z,993.78
2019-04-25T06:18:36.623Z,993.74
2019-04-25T06:19:38.323Z,993.76
2019-04-25T06:20:36.602Z,993.76
2019-04-25T06:21:36.621Z,993.78
2019-04-25T06:22:36.581Z,993.83
2019-04-25T06:23:36.583Z,993.82
2019-04-25T06:24:36.560Z,993.81
2019-04-25T06:25:39.784Z,993.80
2019-04-25T06:26:39.774Z,993.75
2019-04-25T06:27:36.527Z,993.75
2019-04-25T06:28:48.991Z,993.79
2019-04-25T06:29:37.507Z,993.78
2019-04-25T06:30:36.500Z,993.79
2019-04-25T06:31:36.537Z,993.81
2019-04-25T06:32:36.478Z,993.78
2019-04-25T06:33:36.502Z,993.74
2019-04-25T06:34:36.563Z,993.80
2019-04-25T06:35:36.467Z,993.91
2019-04-25T06:36:36.439Z,994.01
2019-04-25T06:37:36.480Z,993.96
2019-04-25T06:38:36.964Z,994.03
2019-04-25T06:39:36.402Z,994.04
2019-04-25T06:40:36.391Z,994.04
2019-04-25T06:41:37.103Z,994.05
2019-04-25T06:42:36.393Z,994.12
2019-04-25T06:43:36.363Z,994.06
2019-04-25T06:44:36.372Z,994.06
2019-04-25T06:45:36.360Z,994.07
2019-04-25T06:46:36.478Z,994.08
2019-04-25T06:47:36.342Z,994.12
2019-04-25T06:48:36.303Z,994.02
2019-04-25T06:49:37.382Z,994.02
2019-04-25T06:50:36.279Z,994.03
2019-04-25T06:51:36.285Z,994.08
2019-04-25T06:52:36.306Z,994.02
2019-04-25T06:53:36.282Z,994.07
2019-04-25T06:54:36.243Z,994.07
2019-04-25T06:55:36.987Z,994.07
2019-04-25T06:56:36.986Z,994.12
2019-04-25T06:57:36.237Z,994.12
2019-04-25T06:58:36.196Z,994.15
2019-04-25T06:59:38.651Z,994.09
2019-04-25T07:00:41.269Z,994.14
2019-04-25T07:01:37.174Z,994.10
2019-04-25T07:02:36.225Z,994.11
2019-04-25T07:03:36.153Z,994.13
2019-04-25T07:04:36.140Z,994.16
2019-04-25T07:05:40.568Z,994.16
2019-04-25T07:06:36.121Z,994.17
2019-04-25T07:07:36.129Z,994.12
2019-04-25T07:08:36.090Z,994.12
2019-04-25T07:09:36.981Z,994.06
2019-04-25T07:10:36.077Z,994.14
2019-04-25T07:11:36.059Z,994.14
2019-04-25T07:12:36.880Z,994.14
2019-04-25T07:13:38.802Z,994.15
2019-04-25T07:14:36.929Z,994.16
2019-04-25T07:15:36.681Z,994.16
2019-04-25T07:16:36.032Z,994.16
2019-04-25T07:17:37.040Z,994.13
2019-04-25T07:18:37.334Z,994.13
2019-04-25T07:19:35.991Z,994.11
2019-04-25T07:20:35.966Z,994.12
2019-04-25T07:21:35.975Z,994.07
2019-04-25T07:22:36.247Z,994.10
2019-04-25T07:23:36.710Z,994.03
2019-04-25T07:24:35.924Z,994.11
2019-04-25T07:25:36.695Z,994.07
2019-04-25T07:26:39.520Z,994.10
2019-04-25T07:27:35.935Z,994.05
2019-04-25T07:28:36.925Z,994.07
2019-04-25T07:29:35.863Z,994.03
2019-04-25T07:30:48.665Z,994.02
2019-04-25T07:31:37.054Z,994.01
2019-04-25T07:32:36.855Z,994.07
2019-04-25T07:33:35.919Z,994.06
2019-04-25T07:34:36.706Z,993.99
2019-04-25T07:35:35.808Z,994.09
2019-04-25T07:36:36.231Z,994.10
2019-04-25T07:37:37.362Z,994.08
2019-04-25T07:38:36.496Z,994.11
2019-04-25T07:39:36.449Z,994.15
2019-04-25T07:40:36.066Z,994.13
2019-04-25T07:41:37.159Z,994.11
2019-04-25T07:42:36.322Z,994.14
2019-04-25T07:43:36.331Z,994.06
2019-04-25T07:44:49.413Z,994.12
2019-04-25T07:45:36.697Z,994.16
2019-04-25T07:46:38.585Z,994.13
2019-04-25T07:47:36.421Z,994.22
2019-04-25T07:48:37.163Z,994.24
2019-04-25T07:49:35.993Z,994.26
2019-04-25T07:50:36.638Z,994.23
2019-04-25T07:51:36.633Z,994.27
2019-04-25T07:52:35.798Z,994.27
2019-04-25T07:53:36.102Z,994.19
2019-04-25T07:54:36.537Z,994.22
2019-04-25T07:55:36.333Z,994.16
2019-04-25T07:56:36.525Z,994.17
2019-04-25T07:57:35.915Z,994.22
2019-04-25T07:58:48.090Z,994.15
2019-04-25T07:59:36.563Z,994.21
2019-04-25T08:00:36.388Z,994.09
2019-04-25T08:01:37.473Z,994.13
2019-04-25T08:02:35.518Z,994.16
2019-04-25T08:03:36.514Z,994.16
2019-04-25T08:04:36.969Z,994.03
2019-04-25T08:05:36.642Z,994.04
2019-04-25T08:06:35.764Z,994.09
2019-04-25T08:07:36.306Z,994.13
2019-04-25T08:08:36.082Z,994.05
2019-04-25T08:09:36.789Z,994.04
2019-04-25T08:10:35.981Z,994.07
2019-04-25T08:11:36.230Z,994.08
2019-04-25T08:12:35.753Z,994.02
2019-04-25T08:13:36.301Z,994.00
2019-04-25T08:14:35.393Z,994.10
2019-04-25T08:15:36.255Z,994.04
2019-04-25T08:16:35.707Z,994.08
2019-04-25T08:17:37.236Z,994.07
2019-04-25T08:18:36.057Z,994.08
2019-04-25T08:19:35.603Z,994.04
2019-04-25T08:20:35.863Z,994.10
2019-04-25T08:21:35.696Z,994.06
2019-04-25T08:22:50.147Z,994.03
2019-04-25T08:23:37.922Z,994.04
2019-04-25T08:24:35.862Z,994.08
2019-04-25T08:25:38.864Z,994.10
2019-04-25T08:26:36.398Z,994.05
2019-04-25T08:27:35.568Z,994.07
2019-04-25T08:28:48.833Z,994.03
2019-04-25T08:29:39.104Z,994.12
2019-04-25T08:30:36.564Z,994.19
2019-04-25T08:31:36.302Z,994.12
2019-04-25T08:32:36.418Z,994.13
2019-04-25T08:33:35.538Z,994.11
2019-04-25T08:34:36.324Z,994.16
2019-04-25T08:35:36.213Z,994.12
2019-04-25T08:36:37.038Z,994.13
2019-04-25T08:37:36.606Z,994.10
2019-04-25T08:38:36.078Z,994.11
2019-04-25T08:39:38.078Z,994.06
2019-04-25T08:40:37.325Z,994.06
2019-04-25T08:41:36.047Z,994.05
2019-04-25T08:42:36.485Z,994.05
2019-04-25T08:43:37.789Z,994.07
2019-04-25T08:44:35.959Z,994.03
2019-04-25T08:45:35.800Z,994.08
2019-04-25T08:46:36.795Z,994.02
2019-04-25T08:47:36.093Z,993.98
2019-04-25T08:48:35.818Z,994.03
2019-04-25T08:49:36.199Z,994.06
2019-04-25T08:50:39.504Z,993.97
2019-04-25T08:51:36.145Z,994.09
2019-04-25T08:52:35.525Z,994.04
2019-04-25T08:53:36.609Z,993.98
2019-04-25T08:54:39.515Z,993.98
2019-04-25T08:55:37.017Z,994.00
2019-04-25T08:56:37.596Z,994.00
2019-04-25T08:57:35.222Z,993.99
2019-04-25T08:58:36.552Z,993.97
2019-04-25T08:59:40.664Z,993.94
2019-04-25T09:00:36.956Z,994.00
2019-04-25T09:01:37.928Z,994.00
2019-04-25T09:02:36.433Z,994.01
2019-04-25T09:03:35.795Z,994.03
2019-04-25T09:04:35.995Z,993.98
2019-04-25T09:05:37.383Z,993.99
2019-04-25T09:06:36.449Z,994.05
2019-04-25T09:07:35.503Z,994.02
2019-04-25T09:08:35.986Z,994.01
2019-04-25T09:09:36.421Z,993.96
2019-04-25T09:10:35.776Z,993.91
2019-04-25T09:11:36.631Z,993.93
2019-04-25T09:12:35.515Z,993.99
2019-04-25T09:13:37.387Z,993.93
2019-04-25T09:14:36.306Z,993.96
2019-04-25T09:15:36.654Z,993.93
2019-04-25T09:16:36.636Z,993.94
2019-04-25T09:17:35.824Z,993.93
2019-04-25T09:18:36.065Z,993.94
2019-04-25T09:19:36.221Z,993.94
2019-04-25T09:20:38.953Z,993.98
2019-04-25T09:21:36.586Z,993.90
2019-04-25T09:22:36.500Z,993.99
2019-04-25T09:23:36.411Z,993.91
2019-04-25T09:24:36.656Z,993.86
2019-04-25T09:25:35.863Z,993.86
2019-04-25T09:26:36.083Z,993.94
2019-04-25T09:27:35.793Z,993.89
2019-04-25T09:28:37.597Z,993.86
2019-04-25T09:29:35.467Z,993.87
2019-04-25T09:30:36.983Z,993.85
2019-04-25T09:31:37.144Z,993.88
2019-04-25T09:32:35.637Z,993.81
2019-04-25T09:33:36.010Z,993.79
2019-04-25T09:34:35.522Z,993.84
2019-04-25T09:35:36.033Z,993.93
2019-04-25T09:36:35.928Z,993.85
2019-04-25T09:37:35.386Z,993.81
2019-04-25T09:38:36.082Z,993.84
2019-04-25T09:39:35.581Z,993.83
2019-04-25T09:40:35.991Z,993.68
2019-04-25T09:41:35.950Z,993.74
2019-04-25T09:42:35.643Z,993.80
2019-04-25T09:43:35.722Z,993.80
2019-04-25T09:44:37.083Z,993.69
2019-04-25T09:45:35.969Z,993.81
2019-04-25T09:46:35.929Z,993.79
2019-04-25T09:47:35.624Z,993.79
2019-04-25T09:48:36.251Z,993.70
2019-04-25T09:49:35.231Z,993.72
2019-04-25T09:50:34.431Z,993.72
2019-04-25T09:51:35.889Z,993.74
2019-04-25T09:52:35.990Z,993.70
2019-04-25T09:53:38.833Z,993.77
2019-04-25T09:54:36.268Z,993.70
2019-04-25T09:55:35.990Z,993.63
2019-04-25T09:56:34.439Z,993.68
2019-04-25T09:57:34.403Z,993.76
2019-04-25T09:58:34.402Z,993.77
2019-04-25T09:59:35.271Z,993.68
2019-04-25T10:00:34.500Z,993.73
2019-04-25T10:01:34.392Z,993.74
2019-04-25T10:02:34.363Z,993.73
2019-04-25T10:03:34.351Z,993.75
2019-04-25T10:04:35.022Z,993.80
2019-04-25T10:05:34.282Z,993.75
2019-04-25T10:06:34.223Z,993.74
2019-04-25T10:07:34.241Z,993.80
2019-04-25T10:08:34.388Z,993.79
2019-04-25T10:09:34.210Z,993.81
2019-04-25T10:10:34.348Z,993.79
2019-04-25T10:11:34.208Z,993.80
2019-04-25T10:12:34.275Z,993.82
2019-04-25T10:13:35.039Z,993.85
2019-04-25T10:14:35.110Z,993.89
2019-04-25T10:15:34.178Z,993.85
2019-04-25T10:16:35.129Z,993.80
2019-04-25T10:17:34.108Z,993.86
2019-04-25T10:18:34.116Z,993.81
2019-04-25T10:19:34.524Z,993.81
2019-04-25T10:20:34.056Z,993.78
2019-04-25T10:21:34.419Z,993.73
2019-04-25T10:22:34.031Z,993.79
2019-04-25T10:23:34.283Z,993.80
2019-04-25T10:24:34.024Z,993.83
2019-04-25T10:25:34.168Z,993.78
2019-04-25T10:26:34.947Z,993.70
2019-04-25T10:27:34.020Z,993.65
2019-04-25T10:28:33.972Z,993.69
2019-04-25T10:29:41.308Z,993.64
2019-04-25T10:30:34.949Z,993.67
2019-04-25T10:31:33.983Z,993.56
2019-04-25T10:32:33.923Z,993.64
2019-04-25T10:33:33.914Z,993.65
2019-04-25T10:34:33.914Z,993.66
2019-04-25T10:35:46.461Z,993.65
2019-04-25T10:36:35.048Z,993.62
2019-04-25T10:37:35.251Z,993.57
2019-04-25T10:38:35.149Z,993.60
2019-04-25T10:39:34.107Z,993.56
2019-04-25T10:40:33.943Z,993.56
2019-04-25T10:41:35.871Z,993.55
2019-04-25T10:42:34.308Z,993.56
2019-04-25T10:43:34.283Z,993.56
2019-04-25T10:44:33.980Z,993.52
2019-04-25T10:45:34.126Z,993.53
2019-04-25T10:46:34.040Z,993.50
2019-04-25T10:47:35.189Z,993.51
2019-04-25T10:48:34.375Z,993.55
2019-04-25T10:49:34.499Z,993.56
2019-04-25T10:50:34.156Z,993.47
2019-04-25T10:51:34.257Z,993.55
2019-04-25T10:52:41.579Z,993.41
2019-04-25T10:53:36.444Z,993.35
2019-04-25T10:54:35.210Z,993.42
2019-04-25T10:55:33.693Z,993.36
2019-04-25T10:56:33.709Z,993.28
2019-04-25T10:57:34.065Z,993.38
2019-04-25T10:58:35.266Z,993.37
2019-04-25T10:59:33.649Z,993.28
2019-04-25T11:00:34.230Z,993.35
2019-04-25T11:01:33.933Z,993.39
2019-04-25T11:02:34.028Z,993.40
2019-04-25T11:03:33.858Z,993.35
2019-04-25T11:04:34.491Z,993.43
2019-04-25T11:05:34.276Z,993.29
2019-04-25T11:06:33.765Z,993.34
2019-04-25T11:07:33.990Z,993.30
2019-04-25T11:08:34.174Z,993.36
2019-04-25T11:09:34.292Z,993.32
2019-04-25T11:10:34.356Z,993.26
2019-04-25T11:11:34.199Z,993.29
2019-04-25T11:12:33.902Z,993.28
2019-04-25T11:13:35.274Z,993.27
2019-04-25T11:14:34.243Z,993.23
2019-04-25T11:15:33.995Z,993.20
2019-04-25T11:16:33.596Z,993.30
2019-04-25T11:17:33.829Z,993.23
2019-04-25T11:18:34.036Z,993.17
2019-04-25T11:19:34.319Z,993.30
2019-04-25T11:20:33.896Z,993.31
2019-04-25T11:21:33.489Z,993.26
2019-04-25T11:22:34.222Z,993.21
2019-04-25T11:23:33.465Z,993.21
2019-04-25T11:24:34.287Z,993.23
2019-04-25T11:25:34.174Z,993.27
2019-04-25T11:26:34.600Z,993.19
2019-04-25T11:27:34.030Z,993.12
2019-04-25T11:28:33.802Z,993.25
2019-04-25T11:29:34.146Z,993.15
2019-04-25T11:30:33.333Z,993.25
2019-04-25T11:31:34.262Z,993.13
2019-04-25T11:32:33.903Z,993.14
2019-04-25T11:33:33.511Z,993.15
2019-04-25T11:34:33.302Z,993.12
2019-04-25T11:35:34.287Z,993.12
2019-04-25T11:36:34.074Z,993.12
2019-04-25T11:37:34.324Z,993.09
2019-04-25T11:38:33.876Z,993.03
2019-04-25T11:39:34.039Z,993.01
2019-04-25T11:40:34.625Z,993.04
2019-04-25T11:41:34.166Z,993.00
2019-04-25T11:42:33.869Z,992.94
2019-04-25T11:43:33.738Z,992.93
2019-04-25T11:44:33.314Z,993.00
2019-04-25T11:45:33.186Z,992.87
2019-04-25T11:46:33.409Z,992.99
2019-04-25T11:47:33.492Z,992.95
2019-04-25T11:48:34.035Z,993.02
2019-04-25T11:49:34.068Z,992.88
2019-04-25T11:50:33.114Z,993.00
2019-04-25T11:51:34.166Z,993.04
2019-04-25T11:52:33.844Z,992.99
2019-04-25T11:53:33.908Z,993.04
2019-04-25T11:54:33.075Z,993.06
2019-04-25T11:55:33.063Z,993.02
2019-04-25T11:56:34.244Z,993.08
2019-04-25T11:57:33.083Z,993.06
2019-04-25T11:58:33.082Z,992.97
2019-04-25T11:59:34.162Z,993.01
2019-04-25T12:00:33.802Z,993.02
2019-04-25T12:01:33.601Z,993.01
2019-04-25T12:02:34.392Z,992.95
2019-04-25T12:03:33.653Z,993.06
2019-04-25T12:04:33.353Z,992.97
2019-04-25T12:05:34.293Z,992.95
2019-04-25T12:06:33.552Z,992.88
2019-04-25T12:07:34.248Z,992.85
2019-04-25T12:08:33.572Z,992.87
2019-04-25T12:09:33.665Z,992.89
2019-04-25T12:10:34.498Z,992.87
2019-04-25T12:11:34.072Z,992.89
2019-04-25T12:12:33.874Z,992.76
2019-04-25T12:13:34.540Z,992.75
2019-04-25T12:14:34.177Z,992.76
2019-04-25T12:15:33.388Z,992.79
2019-04-25T12:16:32.867Z,992.75
2019-04-25T12:17:32.875Z,992.80
2019-04-25T12:18:33.879Z,992.78
2019-04-25T12:19:37.324Z,992.69
2019-04-25T12:20:34.113Z,992.64
2019-04-25T12:21:34.024Z,992.62
2019-04-25T12:22:34.322Z,992.58
2019-04-25T12:23:33.927Z,992.65
2019-04-25T12:24:33.468Z,992.69
2019-04-25T12:25:34.067Z,992.55
2019-04-25T12:26:33.687Z,992.59
2019-04-25T12:27:32.833Z,992.52
2019-04-25T12:28:33.876Z,992.53